Time;durP1;ratioP1;P1;durP2;ratioP2;P2;SDS_P1;SDS_P2;PMS_P1;PMS_P2;Temp;Humidity;BMP_temperature;BMP_pressure;BME280_temperature;BME280_humidity;BME280_pressure;Samples;Min_cycle;Max_cycle;Signal;HPM_P1;HPM_P2
2022/12/30 00:00:45;;;;;;;17.77;3.85;;;6.20;99.90;;;;;;5053566;28;20086;-63
2022/12/30 00:03:11;;;;;;;11.10;2.80;;;6.20;99.90;;;;;;5037636;28;20036;-62
2022/12/30 00:05:36;;;;;;;18.58;3.80;;;6.20;99.90;;;;;;5053343;28;20059;-63
2022/12/30 00:08:02;;;;;;;12.30;3.55;;;6.20;99.90;;;;;;5054125;28;20056;-62
2022/12/30 00:10:28;;;;;;;14.00;3.28;;;6.20;99.90;;;;;;5054142;28;20055;-62
2022/12/30 00:35:12;;;;;;;20.48;4.50;;;6.10;99.90;;;;;;5053269;28;20109;-63
2022/12/30 00:37:38;;;;;;;13.95;4.32;;;6.10;99.90;;;;;;5054112;28;20486;-62
2022/12/30 00:40:05;;;;;;;11.32;4.15;;;6.10;99.90;;;;;;5071634;28;20044;-62
2022/12/30 00:45:15;;;;;;;14.27;4.45;;;6.10;99.90;;;;;;5053706;28;20109;-62
2022/12/30 00:47:41;;;;;;;15.32;3.38;;;6.10;99.90;;;;;;5072094;28;20400;-62
2022/12/30 00:58:20;;;;;;;12.98;2.97;;;6.10;99.90;;;;;;5075578;28;20040;-62
2022/12/30 01:00:46;;;;;;;16.40;3.72;;;6.00;99.90;;;;;;5075613;28;20473;-62
2022/12/30 01:03:11;;;;;;;16.50;3.42;;;6.00;99.90;;;;;;5056877;28;20135;-62
2022/12/30 01:05:38;;;;;;;18.10;4.22;;;5.90;99.90;;;;;;5057642;28;20045;-62
2022/12/30 01:08:04;;;;;;;17.45;3.58;;;5.90;99.90;;;;;;5057170;28;20485;-62
2022/12/30 01:10:30;;;;;;;20.63;4.63;;;5.90;99.90;;;;;;5057271;28;20036;-62
2022/12/30 01:12:55;;;;;;;16.05;3.47;;;5.90;99.90;;;;;;5057698;28;20614;-63
2022/12/30 01:15:21;;;;;;;14.70;3.67;;;5.80;99.90;;;;;;5057362;28;20135;-62
2022/12/30 01:17:47;;;;;;;18.30;3.90;;;5.80;99.90;;;;;;5056886;28;20083;-62
2022/12/30 01:20:16;;;;;;;16.23;4.13;;;5.80;99.90;;;;;;5057178;28;20509;-62
2022/12/30 01:22:42;;;;;;;13.07;3.53;;;5.70;99.90;;;;;;5057145;28;20512;-62
2022/12/30 01:25:08;;;;;;;19.08;4.00;;;5.70;99.90;;;;;;5056828;28;20043;-62
2022/12/30 01:27:33;;;;;;;16.58;3.17;;;5.70;99.90;;;;;;5057429;28;20049;-62
2022/12/30 01:30:00;;;;;;;14.15;4.05;;;5.60;99.90;;;;;;5074254;28;20045;-62
2022/12/30 01:32:29;;;;;;;11.70;3.22;;;5.60;99.90;;;;;;5057065;28;20072;-62
2022/12/30 01:34:55;;;;;;;17.42;3.92;;;5.60;99.90;;;;;;5074669;28;20400;-62
2022/12/30 01:37:21;;;;;;;12.57;3.28;;;5.60;99.90;;;;;;5056230;28;20417;-63
2022/12/30 01:39:47;;;;;;;16.35;3.17;;;5.60;99.90;;;;;;5056837;28;20044;-62
2022/12/30 01:42:20;;;;;;;14.48;3.17;;;5.60;99.90;;;;;;5056802;28;20124;-63
2022/12/30 01:44:51;;;;;;;16.05;3.65;;;5.60;99.90;;;;;;5039370;28;20068;-62
2022/12/30 01:47:35;;;;;;;18.95;3.83;;;5.60;99.90;;;;;;5074740;28;20072;-62
2022/12/30 01:50:10;;;;;;;16.52;3.28;;;5.60;99.90;;;;;;5040264;28;20503;-63
2022/12/30 01:52:55;;;;;;;14.13;3.25;;;5.60;99.90;;;;;;5074241;28;20044;-62
2022/12/30 01:55:28;;;;;;;12.82;4.13;;;5.60;99.90;;;;;;5040288;28;20123;-62
2022/12/30 01:57:55;;;;;;;17.23;3.63;;;5.60;99.90;;;;;;5039906;28;20056;-62
2022/12/30 02:00:21;;;;;;;15.48;3.88;;;5.60;99.90;;;;;;5055692;28;20519;-62
2022/12/30 02:02:47;;;;;;;13.65;4.40;;;5.70;99.90;;;;;;5056438;28;20075;-62
2022/12/30 02:05:13;;;;;;;20.55;4.90;;;5.70;99.90;;;;;;5054571;28;20109;-63
2022/12/30 02:07:45;;;;;;;14.82;4.40;;;5.70;99.90;;;;;;5074746;28;20032;-62
2022/12/30 02:10:12;;;;;;;11.52;3.15;;;5.80;99.90;;;;;;5055996;28;20115;-62
2022/12/30 02:12:37;;;;;;;15.95;4.53;;;5.70;99.90;;;;;;5055726;28;20055;-62
2022/12/30 02:15:04;;;;;;;17.98;3.58;;;5.70;99.90;;;;;;5056449;28;20036;-62
2022/12/30 02:17:51;;;;;;;13.23;3.47;;;5.70;99.90;;;;;;5056310;28;20066;-62
2022/12/30 02:20:44;;;;;;;15.45;4.15;;;5.70;99.90;;;;;;5073190;28;20393;-62
2022/12/30 02:23:15;;;;;;;12.93;4.32;;;5.70;99.90;;;;;;5056269;28;20036;-63
2022/12/30 02:26:07;;;;;;;11.95;3.38;;;5.70;99.90;;;;;;5074419;28;20245;-62
2022/12/30 02:29:05;;;;;;;18.08;3.53;;;5.70;99.90;;;;;;5055483;28;20040;-63
2022/12/30 02:31:43;;;;;;;19.48;4.72;;;5.70;99.90;;;;;;5039575;28;20044;-63
2022/12/30 02:34:21;;;;;;;21.25;4.45;;;5.70;99.90;;;;;;5055115;28;20485;-62
2022/12/30 02:36:55;;;;;;;17.75;4.28;;;5.70;99.90;;;;;;5055812;28;20111;-62
2022/12/30 02:39:39;;;;;;;17.48;3.30;;;5.70;99.90;;;;;;5073717;28;20040;-62
2022/12/30 02:45:15;;;;;;;17.67;4.40;;;5.70;99.90;;;;;;5028479;28;20106;-63
2022/12/30 02:47:55;;;;;;;17.17;4.68;;;5.70;99.90;;;;;;5072979;28;20127;-63
2022/12/30 02:53:14;;;;;;;17.38;3.25;;;5.70;99.90;;;;;;5055491;28;20254;-63
2022/12/30 02:55:40;;;;;;;18.83;3.90;;;5.70;99.90;;;;;;5055019;28;20048;-62
2022/12/30 02:58:06;;;;;;;18.45;4.85;;;5.70;99.90;;;;;;5055182;28;20049;-62
2022/12/30 03:04:00;;;;;;;18.90;3.95;;;5.80;99.90;;;;;;5054560;28;20045;-62
2022/12/30 03:06:37;;;;;;;14.38;3.92;;;5.80;99.90;;;;;;5055134;28;20055;-63
2022/12/30 03:09:27;;;;;;;15.98;4.47;;;5.80;99.90;;;;;;5054231;28;20060;-63
2022/12/30 03:12:21;;;;;;;19.20;4.78;;;5.80;99.90;;;;;;5073155;28;20042;-63
2022/12/30 03:15:03;;;;;;;13.52;4.00;;;5.90;99.90;;;;;;5055059;28;20050;-63
2022/12/30 03:17:36;;;;;;;19.33;5.22;;;5.80;99.90;;;;;;5071304;28;20127;-63
2022/12/30 03:20:07;;;;;;;16.45;5.25;;;5.90;99.90;;;;;;5072904;28;20048;-62
2022/12/30 03:28:10;;;;;;;22.77;3.78;;;5.90;99.90;;;;;;5072733;28;20667;-62
2022/12/30 03:30:42;;;;;;;16.63;3.53;;;5.80;99.90;;;;;;5054219;28;20080;-62
2022/12/30 03:33:09;;;;;;;16.38;4.57;;;5.80;99.90;;;;;;5055122;28;20055;-62
2022/12/30 03:35:38;;;;;;;21.95;4.75;;;5.80;99.90;;;;;;5072912;28;20482;-62
2022/12/30 03:38:06;;;;;;;17.77;4.57;;;5.80;99.90;;;;;;5071517;28;20408;-63
2022/12/30 03:40:40;;;;;;;18.38;4.03;;;5.80;99.90;;;;;;5072478;28;20469;-62
2022/12/30 03:43:07;;;;;;;18.30;6.05;;;5.70;99.90;;;;;;5054607;28;20067;-62
2022/12/30 03:45:33;;;;;;;16.98;4.20;;;5.70;99.90;;;;;;5037654;28;20097;-62
2022/12/30 03:47:59;;;;;;;22.10;5.47;;;5.70;99.90;;;;;;5072506;28;20473;-62
2022/12/30 03:50:24;;;;;;;16.58;4.30;;;5.70;99.90;;;;;;5072331;28;20458;-63
2022/12/30 03:52:50;;;;;;;23.80;4.07;;;5.50;99.90;;;;;;5053889;28;20469;-62
2022/12/30 03:55:16;;;;;;;18.75;4.50;;;5.50;99.90;;;;;;5072296;28;20378;-63
2022/12/30 03:57:42;;;;;;;15.05;4.75;;;5.50;99.90;;;;;;5053716;28;20093;-62
2022/12/30 04:00:08;;;;;;;21.70;5.80;;;5.40;99.90;;;;;;5054320;28;20543;-62
2022/12/30 04:02:35;;;;;;;16.70;4.80;;;5.50;99.90;;;;;;5054528;28;20045;-62
2022/12/30 04:05:01;;;;;;;22.60;4.97;;;5.40;99.90;;;;;;5053400;28;20923;-62
2022/12/30 04:07:26;;;;;;;13.70;3.70;;;5.40;99.90;;;;;;5054116;28;20037;-62
2022/12/30 04:09:52;;;;;;;12.05;4.85;;;5.40;99.90;;;;;;5054347;28;20167;-62
2022/12/30 04:12:18;;;;;;;18.13;4.68;;;5.40;99.90;;;;;;5053468;28;20481;-62
2022/12/30 04:14:43;;;;;;;20.15;4.60;;;5.40;99.90;;;;;;5053920;28;20125;-62
2022/12/30 04:17:09;;;;;;;16.25;4.60;;;5.40;99.90;;;;;;5053960;28;20197;-62
2022/12/30 04:19:34;;;;;;;19.13;5.15;;;5.40;99.90;;;;;;5053547;28;20162;-62
2022/12/30 04:22:00;;;;;;;15.02;4.63;;;5.40;99.90;;;;;;5072108;28;20036;-63
2022/12/30 04:24:26;;;;;;;16.63;4.30;;;5.40;99.90;;;;;;5053845;28;20054;-62
2022/12/30 04:26:52;;;;;;;16.95;5.25;;;5.40;99.90;;;;;;5053339;28;20036;-63
2022/12/30 04:29:18;;;;;;;24.52;5.32;;;5.40;99.90;;;;;;5071424;28;20397;-62
2022/12/30 04:31:43;;;;;;;14.13;4.50;;;5.40;99.90;;;;;;5071955;28;20040;-62
2022/12/30 04:34:12;;;;;;;17.60;5.38;;;5.40;99.90;;;;;;5070953;28;20491;-63
2022/12/30 04:36:37;;;;;;;18.00;4.80;;;5.40;99.90;;;;;;5054139;28;20124;-62
2022/12/30 04:39:04;;;;;;;16.92;4.45;;;5.40;99.90;;;;;;5071686;28;20119;-62
2022/12/30 04:41:29;;;;;;;21.83;5.80;;;5.40;99.90;;;;;;5071410;28;20033;-62
2022/12/30 04:43:55;;;;;;;15.63;5.10;;;5.40;99.90;;;;;;5053739;28;20401;-62
2022/12/30 04:46:21;;;;;;;17.23;4.60;;;5.40;99.90;;;;;;5071805;28;20400;-62
2022/12/30 04:48:46;;;;;;;16.13;5.05;;;5.30;99.90;;;;;;5036433;28;20072;-62
2022/12/30 04:51:12;;;;;;;18.85;5.68;;;5.30;99.90;;;;;;5053985;28;20070;-62
2022/12/30 04:53:38;;;;;;;19.67;5.43;;;5.30;99.90;;;;;;5054038;28;20040;-62
2022/12/30 04:56:04;;;;;;;20.73;6.10;;;5.30;99.90;;;;;;5070998;28;20443;-63
2022/12/30 04:58:29;;;;;;;14.63;5.20;;;5.30;99.90;;;;;;5053802;28;20503;-62
2022/12/30 05:00:55;;;;;;;14.90;5.60;;;5.30;99.90;;;;;;5053760;28;20048;-62
2022/12/30 05:03:20;;;;;;;14.43;5.13;;;5.40;99.90;;;;;;5053228;28;20067;-62
2022/12/30 05:05:47;;;;;;;16.33;4.80;;;5.40;99.90;;;;;;5053473;28;20105;-62
2022/12/30 05:08:12;;;;;;;12.55;5.22;;;5.50;99.90;;;;;;5052734;28;20044;-62
2022/12/30 05:10:39;;;;;;;14.50;5.38;;;5.50;99.90;;;;;;5053808;28;20051;-62
2022/12/30 05:13:06;;;;;;;15.30;5.05;;;5.50;99.90;;;;;;5036711;28;20049;-62
2022/12/30 05:15:31;;;;;;;17.65;5.25;;;5.50;99.90;;;;;;5052784;28;20048;-62
2022/12/30 05:17:57;;;;;;;18.25;4.28;;;5.60;99.90;;;;;;5053629;28;20040;-62
2022/12/30 05:20:23;;;;;;;21.67;4.63;;;5.60;99.90;;;;;;5053289;28;20485;-62
2022/12/30 05:22:49;;;;;;;16.20;4.57;;;5.60;99.90;;;;;;5070789;28;20120;-62
2022/12/30 05:27:59;;;;;;;21.10;5.18;;;5.60;99.90;;;;;;5053233;28;20547;-62
2022/12/30 05:30:24;;;;;;;14.40;4.60;;;5.70;99.90;;;;;;5052517;28;20041;-62
2022/12/30 05:32:51;;;;;;;17.02;4.70;;;5.70;99.90;;;;;;5071320;28;20037;-62
2022/12/30 05:35:17;;;;;;;15.10;4.80;;;5.70;99.90;;;;;;5053584;28;20094;-62
2022/12/30 05:37:42;;;;;;;11.45;4.43;;;5.70;99.90;;;;;;5052589;28;20473;-62
2022/12/30 05:40:09;;;;;;;14.00;4.13;;;5.70;99.90;;;;;;5053567;28;20119;-62
2022/12/30 05:42:35;;;;;;;11.05;4.28;;;5.70;99.90;;;;;;5057203;28;20041;-62
2022/12/30 05:45:01;;;;;;;17.38;5.13;;;5.80;99.90;;;;;;5056027;28;20131;-63
2022/12/30 05:47:26;;;;;;;15.90;4.53;;;5.80;99.90;;;;;;5056997;28;20048;-62
2022/12/30 05:49:52;;;;;;;15.25;4.95;;;5.80;99.90;;;;;;5074727;28;20067;-62
2022/12/30 05:52:18;;;;;;;17.17;5.40;;;5.80;99.90;;;;;;5055991;28;20094;-62
2022/12/30 05:54:43;;;;;;;12.27;4.78;;;5.80;99.90;;;;;;5040125;28;20153;-62
2022/12/30 05:57:09;;;;;;;10.40;3.72;;;5.80;99.90;;;;;;5056679;28;20098;-62
2022/12/30 05:59:35;;;;;;;19.00;5.80;;;5.80;99.90;;;;;;5039456;28;20033;-62
2022/12/30 06:02:01;;;;;;;13.38;4.38;;;5.70;99.90;;;;;;5074703;28;20542;-62
2022/12/30 06:04:27;;;;;;;9.23;3.63;;;5.70;99.90;;;;;;5055527;28;20041;-63
2022/12/30 06:06:53;;;;;;;17.35;4.75;;;5.70;99.90;;;;;;5056422;28;20098;-62
2022/12/30 06:09:19;;;;;;;13.98;4.53;;;5.70;99.90;;;;;;5056371;28;20048;-62
2022/12/30 06:11:44;;;;;;;19.25;5.18;;;5.60;99.90;;;;;;5055319;28;20515;-62
2022/12/30 06:14:12;;;;;;;17.88;4.70;;;5.70;99.90;;;;;;5056237;28;20110;-62
2022/12/30 06:16:37;;;;;;;17.25;4.63;;;5.70;99.90;;;;;;5056836;28;20037;-62
2022/12/30 06:19:03;;;;;;;16.60;4.95;;;5.60;99.90;;;;;;5038677;28;20553;-62
2022/12/30 06:21:29;;;;;;;14.18;4.03;;;5.60;99.90;;;;;;5074320;28;20139;-62
2022/12/30 06:23:55;;;;;;;12.63;4.05;;;5.60;99.90;;;;;;5056285;28;20036;-62
2022/12/30 06:26:21;;;;;;;9.80;3.95;;;5.60;99.90;;;;;;5055284;28;20040;-62
2022/12/30 06:28:46;;;;;;;15.13;5.20;;;5.50;99.90;;;;;;5056068;28;20472;-63
2022/12/30 06:31:12;;;;;;;14.90;5.03;;;5.50;99.90;;;;;;5055976;28;20115;-62
2022/12/30 06:33:38;;;;;;;12.60;4.82;;;5.50;99.90;;;;;;5055451;28;20052;-62
2022/12/30 06:36:03;;;;;;;14.80;4.95;;;5.40;99.90;;;;;;5073845;28;20047;-63
2022/12/30 06:38:29;;;;;;;13.10;6.68;;;5.40;99.90;;;;;;5039482;28;20076;-63
2022/12/30 06:40:55;;;;;;;16.02;4.93;;;5.30;99.90;;;;;;5055040;28;20457;-62
2022/12/30 06:43:21;;;;;;;15.30;5.15;;;5.20;99.90;;;;;;5055955;28;20398;-62
2022/12/30 06:45:46;;;;;;;16.73;5.20;;;5.20;99.90;;;;;;5073809;28;20033;-63
2022/12/30 06:48:12;;;;;;;12.98;4.15;;;5.20;99.90;;;;;;5072751;28;20443;-62
2022/12/30 06:50:38;;;;;;;12.65;4.72;;;5.10;99.90;;;;;;5056130;28;20045;-62
2022/12/30 06:53:05;;;;;;;16.20;5.07;;;5.10;99.90;;;;;;5073053;28;20048;-63
2022/12/30 06:55:31;;;;;;;13.80;5.03;;;5.00;99.90;;;;;;5072834;28;20051;-63
2022/12/30 06:57:57;;;;;;;21.77;5.40;;;5.00;99.90;;;;;;5055401;28;20063;-62
2022/12/30 07:00:22;;;;;;;16.35;5.60;;;5.00;99.90;;;;;;5073496;28;20041;-62
2022/12/30 07:02:48;;;;;;;21.42;5.85;;;4.90;99.90;;;;;;5072728;28;20410;-62
2022/12/30 07:05:14;;;;;;;18.42;5.15;;;4.90;99.90;;;;;;5073086;28;20052;-63
2022/12/30 07:07:40;;;;;;;15.68;5.13;;;4.90;99.90;;;;;;5054549;28;20039;-62
2022/12/30 07:10:06;;;;;;;17.13;5.40;;;4.90;99.90;;;;;;5072146;28;20042;-62
2022/12/30 07:12:32;;;;;;;15.23;4.50;;;4.90;99.90;;;;;;5055430;28;20040;-63
2022/12/30 07:14:57;;;;;;;15.02;5.40;;;4.80;99.90;;;;;;5072227;28;20051;-63
2022/12/30 07:17:23;;;;;;;12.23;4.72;;;4.80;99.90;;;;;;5055316;28;20044;-63
2022/12/30 07:19:49;;;;;;;15.45;5.28;;;4.90;99.90;;;;;;5072987;28;20091;-63
2022/12/30 07:22:16;;;;;;;12.00;5.25;;;4.90;99.90;;;;;;5054165;28;20048;-62
2022/12/30 07:24:42;;;;;;;14.25;4.85;;;4.80;99.90;;;;;;5055447;28;20063;-63
2022/12/30 07:27:10;;;;;;;18.00;5.40;;;4.80;99.90;;;;;;5072372;28;20087;-62
2022/12/30 07:29:36;;;;;;;14.18;5.32;;;4.90;99.90;;;;;;5071215;28;20492;-63
2022/12/30 07:32:01;;;;;;;14.23;5.25;;;4.80;99.90;;;;;;5072834;28;20119;-62
2022/12/30 07:34:27;;;;;;;21.58;5.53;;;4.80;99.90;;;;;;5072120;28;20456;-62
2022/12/30 07:36:53;;;;;;;17.02;5.72;;;4.80;99.90;;;;;;5070975;28;20040;-62
2022/12/30 07:39:19;;;;;;;16.20;6.60;;;4.80;99.90;;;;;;5069677;28;20119;-62
2022/12/30 07:41:44;;;;;;;17.17;4.70;;;4.90;99.90;;;;;;5072338;28;20032;-62
2022/12/30 07:44:10;;;;;;;17.27;6.18;;;4.80;99.90;;;;;;5071606;28;20120;-62
2022/12/30 07:46:36;;;;;;;15.68;5.32;;;4.90;99.90;;;;;;5071381;28;20068;-62
2022/12/30 07:49:02;;;;;;;13.38;4.50;;;4.80;99.90;;;;;;5072139;28;20051;-62
2022/12/30 07:51:28;;;;;;;15.13;4.53;;;4.80;99.90;;;;;;5051294;28;20837;-62
2022/12/30 07:53:53;;;;;;;15.00;4.10;;;4.90;99.90;;;;;;5053244;28;20407;-62
2022/12/30 07:56:19;;;;;;;15.52;4.18;;;4.80;99.90;;;;;;5032022;28;20045;-63
2022/12/30 07:58:45;;;;;;;12.85;3.63;;;4.80;99.90;;;;;;5064746;28;20044;-62
2022/12/30 08:01:12;;;;;;;14.30;3.67;;;4.80;99.90;;;;;;5051259;28;20187;-62
2022/12/30 08:03:40;;;;;;;14.95;4.05;;;4.80;99.90;;;;;;5062803;28;20033;-62
2022/12/30 08:06:12;;;;;;;13.27;4.10;;;4.80;99.90;;;;;;5057623;28;20053;-62
2022/12/30 08:08:38;;;;;;;10.13;3.90;;;4.90;99.90;;;;;;5054081;28;20049;-63
2022/12/30 08:11:05;;;;;;;12.75;4.72;;;4.80;99.90;;;;;;5034385;28;20063;-62
2022/12/30 08:13:34;;;;;;;13.77;3.70;;;4.90;99.90;;;;;;5052284;28;20076;-63
2022/12/30 08:16:08;;;;;;;14.07;3.95;;;4.90;99.90;;;;;;5034890;28;20041;-62
2022/12/30 08:18:34;;;;;;;12.00;3.47;;;4.90;99.90;;;;;;5051283;28;20043;-62
2022/12/30 08:21:04;;;;;;;12.60;3.55;;;4.90;99.90;;;;;;5051659;28;20045;-62
2022/12/30 08:23:31;;;;;;;12.93;4.80;;;4.90;99.90;;;;;;5052154;28;20036;-62
2022/12/30 08:26:02;;;;;;;16.10;3.92;;;4.90;99.90;;;;;;5069038;28;20044;-62
2022/12/30 08:28:28;;;;;;;13.02;3.80;;;5.00;99.90;;;;;;5054477;28;20047;-62
2022/12/30 08:30:53;;;;;;;18.30;4.03;;;4.90;99.90;;;;;;5069566;28;20033;-62
2022/12/30 08:33:19;;;;;;;14.20;4.05;;;4.90;99.90;;;;;;5065856;28;20133;-62
2022/12/30 08:35:45;;;;;;;18.02;3.97;;;5.00;99.90;;;;;;5065339;28;20040;-62
2022/12/30 08:38:11;;;;;;;16.17;4.15;;;5.00;99.90;;;;;;5045977;28;20056;-62
2022/12/30 08:40:37;;;;;;;11.30;3.70;;;5.10;99.90;;;;;;5050576;28;20044;-62
2022/12/30 08:43:03;;;;;;;11.48;3.65;;;5.00;99.90;;;;;;5069147;28;20392;-62
2022/12/30 08:45:29;;;;;;;11.73;4.15;;;5.10;99.90;;;;;;5069534;28;20036;-62
2022/12/30 08:47:54;;;;;;;9.73;3.50;;;5.00;99.90;;;;;;5059209;28;20041;-62
2022/12/30 08:50:21;;;;;;;14.50;3.97;;;5.10;99.90;;;;;;5067399;28;20043;-62
2022/12/30 08:52:46;;;;;;;12.77;3.67;;;5.10;99.90;;;;;;5069531;28;20063;-62
2022/12/30 08:55:12;;;;;;;11.10;3.60;;;5.10;99.90;;;;;;5068568;28;20474;-62
2022/12/30 08:57:39;;;;;;;12.15;3.40;;;5.10;99.90;;;;;;5035925;28;20044;-62
2022/12/30 09:00:07;;;;;;;10.55;3.40;;;5.10;99.90;;;;;;5055809;28;20044;-63
2022/12/30 09:02:34;;;;;;;12.32;3.90;;;5.20;99.90;;;;;;5052361;28;20492;-62
2022/12/30 09:05:00;;;;;;;12.20;3.35;;;5.20;99.90;;;;;;5068917;28;20045;-62
2022/12/30 09:07:26;;;;;;;10.68;3.50;;;5.20;99.90;;;;;;5050619;28;20041;-62
2022/12/30 09:09:51;;;;;;;15.60;4.32;;;5.20;99.90;;;;;;5034456;28;20049;-62
2022/12/30 09:12:17;;;;;;;11.55;4.03;;;5.30;99.90;;;;;;5069135;28;20119;-62
2022/12/30 09:14:43;;;;;;;11.23;3.63;;;5.20;99.90;;;;;;5034990;28;20055;-63
2022/12/30 09:17:09;;;;;;;17.88;4.55;;;5.30;99.90;;;;;;5067821;28;20083;-62
2022/12/30 09:19:35;;;;;;;17.48;4.05;;;5.30;99.90;;;;;;5071947;28;20049;-61
2022/12/30 09:22:01;;;;;;;14.57;3.78;;;5.30;99.90;;;;;;5061257;28;20475;-62
2022/12/30 09:24:27;;;;;;;15.40;4.03;;;5.30;99.90;;;;;;5040161;28;20133;-62
2022/12/30 09:26:52;;;;;;;16.48;4.82;;;5.30;99.90;;;;;;5058998;28;20036;-62
2022/12/30 09:29:18;;;;;;;9.85;3.25;;;5.30;99.90;;;;;;5071521;28;20055;-62
2022/12/30 09:31:44;;;;;;;13.00;3.58;;;5.30;99.90;;;;;;5053918;28;20040;-62
2022/12/30 09:34:10;;;;;;;13.18;3.55;;;5.30;99.90;;;;;;5054210;28;20052;-62
2022/12/30 09:36:36;;;;;;;11.25;3.05;;;5.30;99.90;;;;;;5077083;28;20047;-63
2022/12/30 09:39:02;;;;;;;11.57;3.55;;;5.40;99.90;;;;;;5059023;28;20040;-62
2022/12/30 09:44:42;;;;;;;12.25;3.42;;;5.40;99.90;;;;;;5070376;28;20053;-63
2022/12/30 09:47:17;;;;;;;11.25;3.10;;;5.50;99.90;;;;;;5053358;28;20689;-63
2022/12/30 09:49:48;;;;;;;10.00;3.40;;;5.50;99.90;;;;;;5053161;28;20041;-63
2022/12/30 09:52:28;;;;;;;10.82;4.88;;;5.50;99.90;;;;;;5051190;28;20040;-63
2022/12/30 09:55:04;;;;;;;12.98;3.75;;;5.50;99.90;;;;;;5071557;28;20040;-62
2022/12/30 09:57:34;;;;;;;11.93;3.40;;;5.60;99.90;;;;;;5062992;28;20055;-62
2022/12/30 10:00:07;;;;;;;10.43;4.10;;;5.60;99.90;;;;;;5053481;28;20423;-62
2022/12/30 10:02:55;;;;;;;10.85;3.70;;;5.60;99.90;;;;;;5071582;28;20036;-62
2022/12/30 10:05:53;;;;;;;10.32;2.97;;;5.60;99.90;;;;;;5053243;28;20049;-62
2022/12/30 10:08:33;;;;;;;11.75;3.60;;;5.70;99.90;;;;;;5067134;28;20428;-63
2022/12/30 10:11:28;;;;;;;11.98;3.95;;;5.70;99.90;;;;;;5060240;28;20497;-62
2022/12/30 10:14:07;;;;;;;7.65;2.90;;;5.70;99.90;;;;;;5016941;28;20414;-62
2022/12/30 10:16:59;;;;;;;16.67;3.55;;;5.80;99.90;;;;;;5070226;28;20048;-62
2022/12/30 10:19:46;;;;;;;10.10;3.40;;;5.80;99.90;;;;;;5065548;28;20055;-62
2022/12/30 10:22:43;;;;;;;13.02;3.88;;;5.90;99.90;;;;;;5058733;28;20036;-62
2022/12/30 10:25:27;;;;;;;11.38;2.97;;;5.90;99.90;;;;;;5038713;28;20447;-62
2022/12/30 10:27:57;;;;;;;11.23;3.92;;;5.90;99.90;;;;;;5069892;28;20029;-62
2022/12/30 10:30:33;;;;;;;10.85;3.28;;;6.00;99.90;;;;;;5036875;28;20056;-63
2022/12/30 10:33:07;;;;;;;12.25;3.13;;;6.00;99.90;;;;;;5054549;28;20052;-62
2022/12/30 10:35:36;;;;;;;18.02;4.32;;;6.00;99.90;;;;;;5062760;28;20044;-62
2022/12/30 10:38:13;;;;;;;13.40;4.07;;;6.10;99.90;;;;;;5053183;28;20501;-63
2022/12/30 10:40:51;;;;;;;11.52;3.53;;;6.10;99.90;;;;;;5070022;28;20083;-62
2022/12/30 10:43:38;;;;;;;9.57;3.65;;;6.10;99.90;;;;;;5056598;28;20052;-62
2022/12/30 10:46:16;;;;;;;11.93;3.17;;;6.20;99.90;;;;;;5057700;28;20477;-63
2022/12/30 10:49:13;;;;;;;11.77;3.40;;;6.20;99.90;;;;;;5043886;28;20036;-62
2022/12/30 10:51:40;;;;;;;11.80;3.42;;;6.30;99.90;;;;;;5069673;28;20111;-62
2022/12/30 10:54:08;;;;;;;10.85;3.22;;;6.30;99.90;;;;;;5057581;28;20041;-62
2022/12/30 10:56:36;;;;;;;10.00;3.63;;;6.30;99.90;;;;;;5071016;28;20439;-62
2022/12/30 10:59:10;;;;;;;11.35;3.30;;;6.40;99.90;;;;;;5061193;28;20142;-62
2022/12/30 11:01:37;;;;;;;7.57;3.25;;;6.40;99.90;;;;;;5069356;28;20113;-62
2022/12/30 11:04:03;;;;;;;20.40;5.03;;;6.40;99.90;;;;;;5052335;28;20037;-62
2022/12/30 11:06:29;;;;;;;11.85;3.10;;;6.40;99.90;;;;;;5071048;28;20056;-62
2022/12/30 11:09:13;;;;;;;15.05;9.77;;;6.40;99.90;;;;;;5070407;28;20048;-62
2022/12/30 11:14:43;;;;;;;10.50;3.17;;;6.40;99.90;;;;;;5050483;28;20044;-62
2022/12/30 11:17:17;;;;;;;7.32;2.90;;;6.40;99.90;;;;;;5051609;28;20044;-62
2022/12/30 11:19:43;;;;;;;9.18;3.03;;;6.50;99.90;;;;;;5069533;28;20140;-63
2022/12/30 11:22:10;;;;;;;7.95;2.60;;;6.40;99.90;;;;;;5050779;28;20079;-62
2022/12/30 11:24:37;;;;;;;9.48;2.95;;;6.50;99.90;;;;;;5051480;28;20045;-62
2022/12/30 11:27:03;;;;;;;9.75;3.20;;;6.50;99.90;;;;;;5068639;28;20119;-62
2022/12/30 11:29:33;;;;;;;9.05;3.03;;;6.50;99.90;;;;;;5071261;28;20048;-62
2022/12/30 11:31:59;;;;;;;10.73;3.67;;;6.50;99.90;;;;;;5055567;28;20087;-62
2022/12/30 11:34:29;;;;;;;11.63;3.35;;;6.50;99.90;;;;;;5071903;28;20459;-62
2022/12/30 11:37:15;;;;;;;7.00;2.85;;;6.60;99.90;;;;;;5071120;28;20054;-62
2022/12/30 11:39:41;;;;;;;11.98;3.38;;;6.60;99.90;;;;;;5067625;28;20119;-63
2022/12/30 11:42:29;;;;;;;10.73;3.28;;;6.60;99.90;;;;;;5067822;28;20123;-62
2022/12/30 11:45:17;;;;;;;10.35;2.63;;;6.70;99.90;;;;;;5068446;28;20097;-62
2022/12/30 11:47:46;;;;;;;7.95;2.63;;;6.70;99.90;;;;;;5068285;28;20040;-62
2022/12/30 11:50:17;;;;;;;8.60;3.08;;;6.80;99.90;;;;;;5065404;28;20053;-62
2022/12/30 11:52:52;;;;;;;10.80;3.53;;;6.80;99.90;;;;;;5066152;28;20048;-62
2022/12/30 11:55:22;;;;;;;12.10;2.75;;;6.80;99.90;;;;;;5069613;28;20044;-62
2022/12/30 11:57:47;;;;;;;8.15;3.55;;;6.90;99.90;;;;;;5067327;28;20056;-62
2022/12/30 12:00:16;;;;;;;12.68;3.65;;;6.90;99.90;;;;;;5069166;28;20043;-62
2022/12/30 12:03:01;;;;;;;8.00;2.55;;;6.90;99.90;;;;;;5069087;28;20485;-63
2022/12/30 12:05:27;;;;;;;9.95;2.78;;;7.00;99.90;;;;;;5069490;28;20102;-63
2022/12/30 12:08:03;;;;;;;8.15;2.55;;;6.90;99.90;;;;;;5069479;28;20143;-63
2022/12/30 12:10:36;;;;;;;8.95;2.40;;;7.00;99.90;;;;;;5067715;28;20388;-62
2022/12/30 12:13:09;;;;;;;7.20;2.75;;;7.00;99.90;;;;;;5067978;28;20052;-63
2022/12/30 12:15:51;;;;;;;7.90;2.55;;;7.10;99.90;;;;;;5068166;28;20055;-63
2022/12/30 12:18:26;;;;;;;4.95;1.88;;;7.10;99.90;;;;;;5065615;28;20053;-62
2022/12/30 12:21:29;;;;;;;11.25;3.17;;;7.10;99.90;;;;;;5067848;28;20528;-62
2022/12/30 12:24:18;;;;;;;7.65;2.10;;;7.20;99.90;;;;;;5067927;28;20496;-63
2022/12/30 12:26:48;;;;;;;5.00;1.52;;;7.20;99.90;;;;;;5067662;28;20049;-63
2022/12/30 12:29:14;;;;;;;5.47;2.17;;;7.20;99.90;;;;;;5067733;28;20068;-62
2022/12/30 12:32:07;;;;;;;8.20;2.80;;;7.30;99.90;;;;;;5068550;28;20098;-63
2022/12/30 12:34:54;;;;;;;5.75;2.03;;;7.30;99.90;;;;;;5069591;28;20045;-62
2022/12/30 12:37:53;;;;;;;8.88;2.20;;;7.30;99.90;;;;;;5051267;28;20045;-63
2022/12/30 12:40:35;;;;;;;8.40;2.28;;;7.40;99.90;;;;;;5066486;28;20045;-63
2022/12/30 12:43:04;;;;;;;6.88;1.80;;;7.40;99.90;;;;;;5066954;28;20614;-63
2022/12/30 12:45:42;;;;;;;9.02;2.38;;;7.40;99.90;;;;;;5068045;28;20044;-63
2022/12/30 12:48:26;;;;;;;8.52;3.50;;;7.50;99.90;;;;;;5054273;28;20509;-64
2022/12/30 12:51:19;;;;;;;7.40;2.25;;;7.50;99.90;;;;;;5069132;28;20405;-63
2022/12/30 12:54:08;;;;;;;9.20;1.95;;;7.60;99.90;;;;;;5071135;28;20032;-64
2022/12/30 12:57:00;;;;;;;7.80;2.00;;;7.60;99.90;;;;;;5038731;28;20049;-63
2022/12/30 12:59:46;;;;;;;8.15;1.63;;;7.60;99.90;;;;;;5051031;28;20435;-64
2022/12/30 13:02:31;;;;;;;7.68;3.08;;;7.70;99.90;;;;;;5071953;28;20055;-63
2022/12/30 13:05:35;;;;;;;7.57;1.55;;;7.70;99.90;;;;;;5055434;28;20409;-63
2022/12/30 13:08:16;;;;;;;5.60;1.85;;;7.70;99.90;;;;;;5033161;28;20052;-64
2022/12/30 13:10:54;;;;;;;7.20;3.13;;;7.80;99.90;;;;;;5071503;28;20044;-64
2022/12/30 13:13:58;;;;;;;6.65;3.40;;;7.80;99.90;;;;;;5055124;28;20127;-62
2022/12/30 13:16:34;;;;;;;6.43;1.98;;;7.80;99.90;;;;;;5031507;28;20084;-63
2022/12/30 13:19:01;;;;;;;8.25;2.22;;;7.80;99.90;;;;;;5053575;28;20133;-62
2022/12/30 13:21:27;;;;;;;12.18;2.35;;;7.90;99.90;;;;;;5070923;28;20086;-62
2022/12/30 13:24:02;;;;;;;7.88;2.60;;;7.90;99.90;;;;;;5072239;28;20481;-63
2022/12/30 13:26:29;;;;;;;7.43;1.38;;;8.00;99.90;;;;;;5072962;28;20041;-62
2022/12/30 13:29:00;;;;;;;6.97;1.60;;;8.00;99.90;;;;;;5072390;28;20036;-71
2022/12/30 13:31:38;;;;;;;5.95;1.77;;;8.00;99.90;;;;;;5070803;28;20033;-62
2022/12/30 13:34:49;;;;;;;5.68;1.85;;;8.10;99.90;;;;;;5065076;28;20052;-62
2022/12/30 13:37:39;;;;;;;7.18;1.83;;;8.10;99.90;;;;;;5023719;28;20565;-62
2022/12/30 13:40:17;;;;;;;9.13;2.30;;;8.20;99.90;;;;;;5070057;28;20049;-62
2022/12/30 13:42:58;;;;;;;6.07;1.58;;;8.20;99.90;;;;;;5070074;28;20040;-61
2022/12/30 13:45:32;;;;;;;4.75;1.65;;;8.30;99.90;;;;;;5054093;28;20050;-61
2022/12/30 13:48:15;;;;;;;8.75;2.60;;;8.30;99.90;;;;;;5054550;28;20633;-62
2022/12/30 13:50:42;;;;;;;6.97;1.83;;;8.30;99.90;;;;;;5054089;28;20136;-61
2022/12/30 13:53:32;;;;;;;6.90;1.50;;;8.30;99.90;;;;;;5072209;28;20049;-61
2022/12/30 13:55:58;;;;;;;4.68;1.35;;;8.40;99.90;;;;;;5053055;28;20481;-61
2022/12/30 13:58:27;;;;;;;6.18;1.73;;;8.40;99.90;;;;;;5070315;28;20051;-61
2022/12/30 14:01:19;;;;;;;7.68;2.08;;;8.40;99.90;;;;;;5056604;28;20044;-61
2022/12/30 14:03:49;;;;;;;6.10;1.30;;;8.40;99.90;;;;;;5051112;28;20044;-62